createdAt,value
2018-10-16T00:01:41.910Z,6.81
2018-10-16T00:04:11.181Z,6.80
2018-10-16T00:06:40.168Z,6.73
2018-10-16T00:09:09.837Z,6.71
2018-10-16T00:11:42.932Z,6.68
2018-10-16T00:14:11.950Z,6.48
2018-10-16T00:16:40.859Z,6.39
2018-10-16T00:19:09.557Z,6.35
2018-10-16T00:21:39.471Z,6.35
2018-10-16T00:24:08.083Z,6.35
2018-10-16T00:26:38.968Z,6.34
2018-10-16T00:29:08.312Z,6.36
2018-10-16T00:31:37.461Z,6.33
2018-10-16T00:34:06.860Z,6.31
2018-10-16T00:36:36.465Z,6.28
2018-10-16T00:39:07.050Z,6.26
2018-10-16T00:41:36.450Z,6.30
2018-10-16T00:44:05.867Z,6.29
2018-10-16T00:46:34.726Z,6.30
2018-10-16T00:49:04.944Z,6.22
2018-10-16T00:51:34.416Z,6.15
2018-10-16T00:54:05.476Z,6.16
2018-10-16T00:56:34.095Z,6.17
2018-10-16T00:59:02.796Z,6.13
2018-10-16T01:01:32.836Z,6.16
2018-10-16T01:04:03.315Z,6.16
2018-10-16T01:06:33.275Z,6.10
2018-10-16T01:09:02.667Z,6.06
2018-10-16T01:11:32.072Z,6.06
2018-10-16T01:14:01.070Z,6.00
2018-10-16T01:16:29.801Z,6.02
2018-10-16T01:18:58.572Z,6.00
2018-10-16T01:21:27.876Z,5.91
2018-10-16T01:23:56.938Z,5.81
2018-10-16T01:26:25.897Z,5.80
2018-10-16T01:28:54.621Z,5.81
2018-10-16T01:31:23.821Z,5.79
2018-10-16T01:33:52.882Z,5.66
2018-10-16T01:36:21.645Z,5.69
2018-10-16T01:38:50.418Z,5.71
2018-10-16T01:41:19.243Z,5.67
2018-10-16T01:43:48.741Z,5.49
2018-10-16T01:46:17.970Z,5.48
2018-10-16T01:48:46.939Z,5.53
2018-10-16T01:51:15.660Z,5.56
2018-10-16T01:53:44.377Z,5.56
2018-10-16T01:56:13.214Z,5.53
2018-10-16T01:58:42.205Z,5.48
2018-10-16T02:01:11.466Z,5.44
2018-10-16T02:03:40.686Z,5.40
2018-10-16T02:06:09.503Z,5.37
2018-10-16T02:08:38.291Z,5.34
2018-10-16T02:11:08.076Z,5.41
2018-10-16T02:13:36.697Z,5.43
2018-10-16T02:16:05.808Z,5.40
2018-10-16T02:18:36.028Z,5.43
2018-10-16T02:21:05.420Z,5.42
2018-10-16T02:23:34.216Z,5.36
2018-10-16T02:26:02.901Z,5.30
2018-10-16T02:28:31.887Z,5.20
2018-10-16T02:31:01.039Z,5.23
2018-10-16T02:33:29.958Z,5.26
2018-10-16T02:35:58.697Z,5.24
2018-10-16T02:38:27.522Z,5.25
2018-10-16T02:40:57.922Z,5.22
2018-10-16T02:43:26.687Z,5.15
2018-10-16T02:45:55.572Z,5.10
2018-10-16T02:48:24.816Z,5.12
2018-10-16T02:50:53.892Z,5.13
2018-10-16T02:53:23.513Z,5.06
2018-10-16T02:55:52.268Z,5.02
2018-10-16T02:58:21.808Z,4.96
2018-10-16T03:00:50.786Z,4.93
2018-10-16T03:03:19.912Z,4.81
2018-10-16T03:05:48.738Z,4.76
2018-10-16T03:08:18.407Z,4.73
2018-10-16T03:10:47.619Z,4.71
2018-10-16T03:13:16.805Z,4.71
2018-10-16T03:15:45.496Z,4.71
2018-10-16T03:18:14.431Z,4.69
2018-10-16T03:20:43.246Z,4.69
2018-10-16T03:23:11.821Z,4.71
2018-10-16T03:25:40.455Z,4.66
2018-10-16T03:28:09.311Z,4.51
2018-10-16T03:30:38.216Z,4.52
2018-10-16T03:33:07.057Z,4.49
2018-10-16T03:35:36.566Z,4.48
2018-10-16T03:38:06.147Z,4.42
2018-10-16T03:40:35.120Z,4.47
2018-10-16T03:43:04.016Z,4.44
2018-10-16T03:45:32.917Z,4.45
2018-10-16T03:48:01.798Z,4.43
2018-10-16T03:50:30.552Z,4.42
2018-10-16T03:52:59.483Z,4.44
2018-10-16T03:55:28.438Z,4.41
2018-10-16T03:57:59.965Z,4.45
2018-10-16T04:00:29.085Z,4.46
2018-10-16T04:02:58.456Z,4.46
2018-10-16T04:05:27.367Z,4.45
2018-10-16T04:07:55.976Z,4.39
2018-10-16T04:10:26.355Z,4.24
2018-10-16T04:12:55.296Z,4.26
2018-10-16T04:15:24.172Z,4.24
2018-10-16T04:17:54.038Z,4.24
2018-10-16T04:20:22.791Z,4.31
2018-10-16T04:22:51.447Z,4.19
2018-10-16T04:25:20.052Z,4.14
2018-10-16T04:27:50.287Z,4.10
2018-10-16T04:30:19.538Z,4.08
2018-10-16T04:32:49.147Z,4.09
2018-10-16T04:35:18.523Z,4.15
2018-10-16T04:37:47.772Z,4.17
2018-10-16T04:40:16.728Z,4.25
2018-10-16T04:42:46.088Z,4.21
2018-10-16T04:45:15.611Z,4.16
2018-10-16T04:47:45.475Z,4.08
2018-10-16T04:50:14.337Z,4.06
2018-10-16T04:52:43.032Z,4.10
2018-10-16T04:55:12.221Z,4.02
2018-10-16T04:57:42.600Z,3.97
2018-10-16T05:00:11.760Z,4.01
2018-10-16T05:02:41.681Z,4.08
2018-10-16T05:05:17.427Z,4.05
2018-10-16T05:07:46.062Z,4.09
2018-10-16T05:10:15.444Z,4.08
2018-10-16T05:12:44.501Z,4.05
2018-10-16T05:15:22.755Z,4.02
2018-10-16T05:17:52.783Z,3.94
2018-10-16T05:20:22.462Z,3.90
2018-10-16T05:22:51.225Z,3.86
2018-10-16T05:25:20.574Z,3.83
2018-10-16T05:27:50.417Z,3.80
2018-10-16T05:30:19.112Z,3.75
2018-10-16T05:32:48.060Z,3.77
2018-10-16T05:35:17.697Z,3.78
2018-10-16T05:37:46.530Z,3.75
2018-10-16T05:40:15.821Z,3.73
2018-10-16T05:42:44.745Z,3.76
2018-10-16T05:45:15.093Z,3.80
2018-10-16T05:47:45.913Z,3.81
2018-10-16T05:50:15.418Z,3.86
2018-10-16T05:52:44.670Z,3.84
2018-10-16T05:55:13.919Z,3.84
2018-10-16T05:57:42.768Z,3.83
2018-10-16T06:00:23.332Z,3.85
2018-10-16T06:02:51.982Z,3.82
2018-10-16T06:05:20.802Z,3.88
2018-10-16T06:07:49.760Z,3.92
2018-10-16T06:10:18.468Z,3.96
2018-10-16T06:12:49.563Z,3.98
2018-10-16T06:15:18.647Z,3.99
2018-10-16T06:17:47.653Z,4.03
2018-10-16T06:20:16.867Z,4.06
2018-10-16T06:22:46.033Z,4.08
2018-10-16T06:25:14.976Z,4.18
2018-10-16T06:27:44.061Z,4.20
2018-10-16T06:30:13.230Z,4.22
2018-10-16T06:32:41.993Z,4.28
2018-10-16T06:35:11.739Z,4.40
2018-10-16T06:37:41.648Z,4.49
2018-10-16T06:40:11.148Z,4.56
2018-10-16T06:42:40.332Z,4.67
2018-10-16T06:45:10.698Z,4.74
2018-10-16T06:47:39.562Z,4.81
2018-10-16T06:50:09.746Z,4.82
2018-10-16T06:52:38.657Z,4.87
2018-10-16T06:55:07.684Z,4.96
2018-10-16T06:57:36.477Z,5.10
2018-10-16T07:00:06.460Z,5.17
2018-10-16T07:02:35.486Z,5.27
2018-10-16T07:05:04.907Z,5.41
2018-10-16T07:07:34.294Z,5.55
2018-10-16T07:10:03.284Z,5.67
2018-10-16T07:12:32.237Z,5.79
2018-10-16T07:15:01.012Z,5.88
2018-10-16T07:17:29.932Z,6.00
2018-10-16T07:20:00.618Z,6.14
2018-10-16T07:22:29.554Z,6.36
2018-10-16T07:24:58.488Z,6.45
2018-10-16T07:27:27.995Z,6.57
2018-10-16T07:29:57.116Z,6.69
2018-10-16T07:32:25.863Z,6.80
2018-10-16T07:34:54.678Z,6.99
2018-10-16T07:37:23.683Z,7.19
2018-10-16T07:39:52.915Z,7.37
2018-10-16T07:42:22.500Z,7.62
2018-10-16T07:44:51.462Z,7.90
2018-10-16T07:47:20.270Z,8.26
2018-10-16T07:49:49.034Z,8.61
2018-10-16T07:52:17.842Z,8.81
2018-10-16T07:54:47.303Z,9.12
2018-10-16T07:57:16.757Z,9.54
2018-10-16T07:59:45.390Z,10.32
2018-10-16T08:02:15.108Z,11.33
2018-10-16T08:04:44.253Z,12.93
2018-10-16T08:07:13.053Z,14.98
2018-10-16T08:09:41.807Z,16.01
2018-10-16T08:12:10.999Z,17.15
2018-10-16T08:14:41.285Z,18.82
2018-10-16T08:17:09.988Z,19.50
2018-10-16T08:19:38.538Z,20.07
2018-10-16T08:22:07.358Z,20.96
2018-10-16T08:24:36.982Z,20.74
2018-10-16T08:27:06.177Z,21.00
2018-10-16T08:29:35.028Z,22.47
2018-10-16T08:32:04.636Z,23.44
2018-10-16T08:34:33.416Z,24.64
2018-10-16T08:37:02.132Z,25.39
2018-10-16T08:39:33.402Z,25.88
2018-10-16T08:43:40.090Z,26.86
2018-10-16T08:46:20.012Z,26.41
2018-10-16T08:49:00.175Z,27.81
2018-10-16T08:51:48.162Z,28.24
2018-10-16T08:54:16.958Z,28.10
2018-10-16T08:56:46.255Z,28.91
2018-10-16T08:59:15.008Z,29.48
2018-10-16T09:01:43.819Z,29.38
2018-10-16T09:04:12.937Z,29.40
2018-10-16T09:06:41.643Z,29.79
2018-10-16T09:09:13.349Z,29.88
2018-10-16T09:11:43.560Z,30.39
2018-10-16T09:14:12.723Z,31.61
2018-10-16T09:16:41.595Z,32.39
2018-10-16T09:19:11.134Z,32.73
2018-10-16T09:21:39.959Z,32.28
2018-10-16T09:24:08.630Z,33.05
2018-10-16T09:26:37.430Z,32.53
2018-10-16T09:29:07.178Z,32.91
2018-10-16T09:31:36.251Z,32.20
2018-10-16T09:34:05.449Z,31.69
2018-10-16T09:36:34.738Z,31.73
2018-10-16T09:39:03.775Z,30.98
2018-10-16T09:41:32.923Z,31.58
2018-10-16T09:44:02.005Z,32.34
2018-10-16T09:46:35.528Z,33.57
2018-10-16T09:49:04.676Z,34.81
2018-10-16T09:51:34.013Z,34.86
2018-10-16T09:54:03.179Z,35.12
2018-10-16T09:56:32.348Z,34.08
2018-10-16T09:59:00.283Z,34.11
2018-10-16T10:01:33.613Z,35.03
2018-10-16T10:04:01.849Z,36.02
2018-10-16T10:06:30.299Z,35.29
2018-10-16T10:08:59.505Z,35.17
2018-10-16T10:11:29.675Z,35.34
2018-10-16T10:13:58.054Z,34.45
2018-10-16T10:16:26.533Z,35.26
2018-10-16T10:18:54.365Z,36.53
2018-10-16T10:21:22.922Z,37.81
2018-10-16T10:23:50.905Z,36.67
2018-10-16T10:26:19.193Z,36.58
2018-10-16T10:28:47.239Z,36.52
2018-10-16T10:31:15.426Z,37.32
2018-10-16T10:33:43.870Z,38.86
2018-10-16T10:36:11.935Z,39.92
2018-10-16T10:38:40.973Z,38.45
2018-10-16T10:41:09.854Z,37.34
2018-10-16T10:43:37.985Z,38.53
2018-10-16T10:46:07.632Z,38.69
2018-10-16T10:48:36.198Z,39.39
2018-10-16T10:51:06.265Z,39.35
2018-10-16T10:53:35.701Z,39.71
2018-10-16T10:56:04.835Z,40.66
2018-10-16T10:58:33.549Z,39.79
2018-10-16T11:01:02.530Z,39.56
2018-10-16T11:03:31.566Z,40.44
2018-10-16T11:06:00.710Z,41.43
2018-10-16T11:08:30.362Z,42.64
2018-10-16T11:10:59.284Z,42.21
2018-10-16T11:13:29.368Z,41.46
2018-10-16T11:15:58.184Z,40.68
2018-10-16T11:18:26.974Z,39.73
2018-10-16T11:20:56.272Z,40.49
2018-10-16T11:23:24.310Z,40.89
2018-10-16T11:25:53.814Z,40.16
2018-10-16T11:28:22.481Z,39.95
2018-10-16T11:30:52.144Z,40.35
2018-10-16T11:33:21.414Z,40.66
2018-10-16T11:35:50.138Z,40.73
2018-10-16T11:38:19.727Z,41.04
2018-10-16T11:40:48.592Z,41.57
2018-10-16T11:43:17.367Z,41.42
2018-10-16T11:45:46.941Z,41.04
2018-10-16T11:48:15.606Z,41.82
2018-10-16T11:50:44.969Z,42.63
2018-10-16T11:53:15.092Z,42.70
2018-10-16T11:55:44.258Z,40.96
2018-10-16T11:58:13.589Z,41.37
2018-10-16T12:00:42.729Z,41.76
2018-10-16T12:03:11.729Z,40.91
2018-10-16T12:05:41.158Z,39.34
2018-10-16T12:08:10.602Z,37.25
2018-10-16T12:10:39.547Z,36.62
2018-10-16T12:13:08.982Z,38.03
2018-10-16T12:15:38.228Z,38.50
2018-10-16T12:18:12.709Z,39.81
2018-10-16T12:20:44.667Z,40.06
2018-10-16T12:23:13.513Z,41.76
2018-10-16T12:25:42.686Z,42.14
2018-10-16T12:28:14.750Z,42.78
2018-10-16T12:30:44.081Z,43.21
2018-10-16T12:33:13.785Z,43.14
2018-10-16T12:35:42.510Z,43.39
2018-10-16T12:38:11.401Z,43.27
2018-10-16T12:40:40.152Z,43.65
2018-10-16T12:43:09.372Z,43.15
2018-10-16T12:45:38.461Z,43.37
2018-10-16T12:48:07.814Z,42.08
2018-10-16T12:50:37.009Z,43.01
2018-10-16T12:53:06.328Z,44.26
2018-10-16T12:55:35.616Z,42.92
2018-10-16T12:58:05.250Z,43.65
2018-10-16T13:00:34.861Z,43.44
2018-10-16T13:03:03.971Z,41.48
2018-10-16T13:05:33.196Z,40.00
2018-10-16T13:08:02.000Z,39.90
2018-10-16T13:10:30.735Z,39.27
2018-10-16T13:12:59.896Z,39.08
2018-10-16T13:15:29.199Z,38.49
2018-10-16T13:17:57.921Z,38.67
2018-10-16T13:20:26.541Z,38.49
2018-10-16T13:22:55.928Z,37.28
2018-10-16T13:25:24.990Z,35.99
2018-10-16T13:27:54.523Z,35.43
2018-10-16T13:30:24.599Z,36.47
2018-10-16T13:32:53.426Z,37.71
2018-10-16T13:35:22.870Z,38.39
2018-10-16T13:37:52.018Z,38.58
2018-10-16T13:40:20.920Z,37.63
2018-10-16T13:42:49.992Z,36.78
2018-10-16T13:45:18.799Z,37.04
2018-10-16T13:47:47.568Z,36.75
2018-10-16T13:50:17.172Z,37.80
2018-10-16T13:52:46.618Z,38.33
2018-10-16T13:55:15.674Z,38.74
2018-10-16T13:57:44.835Z,39.68
2018-10-16T14:00:18.264Z,39.81
2018-10-16T14:02:48.284Z,39.80
2018-10-16T14:05:17.120Z,40.15
2018-10-16T14:07:46.762Z,40.03
2018-10-16T14:10:16.436Z,39.86
2018-10-16T14:12:46.284Z,39.20
2018-10-16T14:15:16.290Z,38.22
2018-10-16T14:17:45.300Z,36.75
2018-10-16T14:20:15.057Z,34.89
2018-10-16T14:22:44.161Z,34.34
2018-10-16T14:25:14.106Z,32.81
2018-10-16T14:27:44.501Z,32.00
2018-10-16T14:30:15.554Z,31.10
2018-10-16T14:32:44.741Z,30.22
2018-10-16T14:35:14.478Z,29.71
2018-10-16T14:37:43.297Z,29.44
2018-10-16T14:40:13.970Z,28.75
2018-10-16T14:42:43.085Z,28.60
2018-10-16T14:45:12.984Z,28.43
2018-10-16T14:47:41.684Z,28.16
2018-10-16T14:50:12.019Z,27.79
2018-10-16T14:52:40.679Z,27.64
2018-10-16T14:55:10.554Z,27.23
2018-10-16T14:57:40.147Z,27.14
2018-10-16T15:00:11.034Z,26.88
2018-10-16T15:02:39.936Z,26.66
2018-10-16T15:05:09.840Z,26.43
2018-10-16T15:07:38.775Z,26.34
2018-10-16T15:10:08.564Z,26.19
2018-10-16T15:12:38.178Z,25.97
2018-10-16T15:15:08.964Z,25.77
2018-10-16T15:17:38.546Z,25.54
2018-10-16T15:20:09.320Z,25.15
2018-10-16T15:22:38.120Z,25.04
2018-10-16T15:25:08.347Z,24.88
2018-10-16T15:27:37.424Z,24.58
2018-10-16T15:30:07.931Z,24.53
2018-10-16T15:32:36.900Z,24.40
2018-10-16T15:35:07.389Z,24.25
2018-10-16T15:37:35.506Z,24.13
2018-10-16T15:40:04.651Z,23.83
2018-10-16T15:42:33.798Z,23.40
2018-10-16T15:45:02.915Z,23.19
2018-10-16T15:47:31.857Z,23.03
2018-10-16T15:50:01.438Z,22.67
2018-10-16T15:52:30.411Z,22.62
2018-10-16T15:54:59.367Z,22.58
2018-10-16T15:57:28.129Z,22.31
2018-10-16T15:59:57.233Z,21.88
2018-10-16T16:02:26.705Z,21.66
2018-10-16T16:04:55.823Z,21.40
2018-10-16T16:07:24.578Z,21.20
2018-10-16T16:09:54.385Z,21.25
2018-10-16T16:12:23.450Z,21.22
2018-10-16T16:14:52.356Z,20.83
2018-10-16T16:17:22.230Z,20.41
2018-10-16T16:19:51.254Z,20.48
2018-10-16T16:22:20.224Z,20.31
2018-10-16T16:24:49.493Z,20.24
2018-10-16T16:27:19.612Z,19.81
2018-10-16T16:29:49.893Z,19.55
2018-10-16T16:32:19.113Z,18.99
2018-10-16T16:34:48.302Z,18.99
2018-10-16T16:37:17.542Z,18.62
2018-10-16T16:39:46.376Z,18.21
2018-10-16T16:42:15.038Z,17.88
2018-10-16T16:44:44.556Z,17.76
2018-10-16T16:47:13.550Z,17.41
2018-10-16T16:49:42.285Z,17.22
2018-10-16T16:52:11.913Z,17.30
2018-10-16T16:54:40.869Z,17.16
2018-10-16T16:57:09.711Z,16.96
2018-10-16T16:59:38.545Z,16.92
2018-10-16T17:02:08.724Z,16.81
2018-10-16T17:04:38.285Z,16.49
2018-10-16T17:07:07.212Z,16.33
2018-10-16T17:09:36.975Z,16.12
2018-10-16T17:12:06.838Z,15.97
2018-10-16T17:14:35.796Z,15.73
2018-10-16T17:17:04.956Z,15.54
2018-10-16T17:19:34.430Z,15.34
2018-10-16T17:22:03.688Z,15.23
2018-10-16T17:24:32.733Z,15.18
2018-10-16T17:27:01.652Z,15.00
2018-10-16T17:29:30.313Z,15.01
2018-10-16T17:31:59.542Z,14.93
2018-10-16T17:34:28.571Z,15.07
2018-10-16T17:36:57.610Z,15.07
2018-10-16T17:39:27.230Z,14.95
2018-10-16T17:41:56.351Z,14.93
2018-10-16T17:44:25.541Z,14.95
2018-10-16T17:52:37.578Z,14.65
2018-10-16T17:55:07.436Z,14.32
2018-10-16T17:57:37.081Z,14.31
2018-10-16T18:00:08.826Z,14.28
2018-10-16T18:02:38.592Z,14.13
2018-10-16T18:05:07.471Z,13.97
2018-10-16T18:07:36.682Z,13.81
2018-10-16T18:10:06.217Z,13.63
2018-10-16T18:12:35.519Z,13.46
2018-10-16T18:15:05.218Z,13.50
2018-10-16T18:17:34.575Z,13.54
2018-10-16T18:20:03.967Z,13.47
2018-10-16T18:22:33.060Z,13.38
2018-10-16T18:25:02.385Z,13.22
2018-10-16T18:27:31.538Z,13.02
2018-10-16T18:30:00.798Z,12.90
2018-10-16T18:32:30.296Z,12.95
2018-10-16T18:34:59.336Z,12.74
2018-10-16T18:37:28.530Z,12.63
2018-10-16T18:39:57.960Z,12.43
2018-10-16T18:42:27.022Z,12.29
2018-10-16T18:44:56.394Z,12.27
2018-10-16T18:47:26.209Z,12.35
2018-10-16T18:49:55.216Z,12.41
2018-10-16T18:52:25.027Z,12.45
2018-10-16T18:54:54.027Z,12.47
2018-10-16T18:57:22.714Z,12.47
2018-10-16T18:59:52.753Z,12.31
2018-10-16T19:02:21.932Z,12.21
2018-10-16T19:04:50.870Z,12.00
2018-10-16T19:07:19.937Z,12.03
2018-10-16T19:09:49.299Z,11.85
2018-10-16T19:12:18.273Z,11.85
2018-10-16T19:14:47.512Z,11.72
2018-10-16T19:17:16.740Z,11.68
2018-10-16T19:19:46.081Z,11.72
2018-10-16T19:22:15.575Z,11.60
2018-10-16T19:24:44.811Z,11.55
2018-10-16T19:27:13.865Z,11.52
2018-10-16T19:29:42.836Z,11.49
2018-10-16T19:32:12.341Z,11.41
2018-10-16T19:34:41.135Z,10.92
2018-10-16T19:37:10.856Z,10.80
2018-10-16T19:39:40.003Z,10.80
2018-10-16T19:42:08.963Z,10.67
2018-10-16T19:44:38.643Z,10.70
2018-10-16T19:47:07.788Z,10.70
2018-10-16T19:49:37.147Z,10.67
2018-10-16T19:52:06.468Z,10.67
2018-10-16T19:54:35.513Z,10.71
2018-10-16T19:57:04.781Z,10.58
2018-10-16T19:59:34.477Z,10.60
2018-10-16T20:02:03.338Z,10.61
2018-10-16T20:04:32.488Z,10.57
2018-10-16T20:07:01.810Z,10.45
2018-10-16T20:09:30.933Z,10.35
2018-10-16T20:12:00.129Z,10.23
2018-10-16T20:14:29.111Z,10.17
2018-10-16T20:16:58.122Z,10.24
2018-10-16T20:19:27.311Z,10.25
2018-10-16T20:21:56.532Z,10.09
2018-10-16T20:24:25.591Z,10.07
2018-10-16T20:26:54.695Z,10.11
2018-10-16T20:29:23.708Z,10.08
2018-10-16T20:31:52.774Z,10.08
2018-10-16T20:34:22.944Z,9.99
2018-10-16T20:36:52.185Z,9.73
2018-10-16T20:39:21.039Z,9.74
2018-10-16T20:41:50.620Z,9.73
2018-10-16T20:44:19.613Z,9.73
2018-10-16T20:46:48.669Z,9.66
2018-10-16T20:49:18.208Z,9.70
2018-10-16T20:51:47.521Z,9.55
2018-10-16T20:54:16.833Z,9.52
2018-10-16T20:56:45.989Z,9.37
2018-10-16T20:59:16.135Z,9.14
2018-10-16T21:01:46.351Z,9.15
2018-10-16T21:04:15.569Z,9.11
2018-10-16T21:06:45.003Z,9.10
2018-10-16T21:09:13.608Z,9.04
2018-10-16T21:11:43.479Z,9.12
2018-10-16T21:14:12.411Z,9.06
2018-10-16T21:16:41.546Z,9.06
2018-10-16T21:19:11.484Z,9.09
2018-10-16T21:21:39.978Z,9.03
2018-10-16T21:24:09.232Z,8.88
2018-10-16T21:26:37.923Z,8.71
2018-10-16T21:29:06.966Z,8.65
2018-10-16T21:31:36.087Z,8.62
2018-10-16T21:34:05.289Z,8.63
2018-10-16T21:36:34.587Z,8.65
2018-10-16T21:39:06.312Z,8.68
2018-10-16T21:41:35.750Z,8.77
2018-10-16T21:44:05.091Z,8.69
2018-10-16T21:46:34.512Z,8.61
2018-10-16T21:49:03.704Z,8.55
2018-10-16T21:51:33.649Z,8.53
2018-10-16T21:54:02.516Z,8.53
2018-10-16T21:56:32.166Z,8.55
2018-10-16T21:59:01.948Z,8.46
2018-10-16T22:01:36.083Z,8.39
2018-10-16T22:04:05.834Z,8.36
2018-10-16T22:06:36.292Z,8.28
2018-10-16T22:09:07.507Z,8.11
2018-10-16T22:11:36.496Z,8.01
2018-10-16T22:14:06.047Z,8.01
2018-10-16T22:16:35.703Z,8.03
2018-10-16T22:19:04.989Z,7.96
2018-10-16T22:21:33.696Z,7.79
2018-10-16T22:24:02.916Z,7.85
2018-10-16T22:26:31.985Z,7.84
2018-10-16T22:29:01.221Z,7.82
2018-10-16T22:31:30.222Z,7.94
2018-10-16T22:33:59.539Z,7.93
2018-10-16T22:36:28.350Z,7.83
2018-10-16T22:38:57.306Z,7.71
2018-10-16T22:41:27.067Z,7.62
2018-10-16T22:43:56.238Z,7.54
2018-10-16T22:46:25.048Z,7.56
2018-10-16T22:48:53.788Z,7.54
2018-10-16T22:51:22.452Z,7.62
2018-10-16T22:53:51.103Z,7.66
2018-10-16T22:56:20.382Z,7.70
2018-10-16T22:58:50.772Z,7.63
2018-10-16T23:01:21.145Z,7.58
2018-10-16T23:03:50.992Z,7.62
2018-10-16T23:06:20.646Z,7.63
2018-10-16T23:08:50.544Z,7.61
2018-10-16T23:11:19.613Z,7.55
2018-10-16T23:13:49.892Z,7.42
2018-10-16T23:16:19.028Z,7.39
2018-10-16T23:18:48.271Z,7.30
2018-10-16T23:21:17.034Z,7.25
2018-10-16T23:23:45.724Z,7.21
2018-10-16T23:26:16.108Z,7.25
2018-10-16T23:28:45.017Z,7.23
2018-10-16T23:31:17.699Z,7.18
2018-10-16T23:33:46.444Z,7.17
2018-10-16T23:36:15.671Z,7.12
2018-10-16T23:38:45.412Z,7.06
2018-10-16T23:41:14.111Z,7.06
2018-10-16T23:43:43.188Z,7.08
2018-10-16T23:46:12.064Z,7.09
2018-10-16T23:48:40.748Z,7.06
2018-10-16T23:51:09.652Z,7.14
2018-10-16T23:53:38.415Z,7.16
2018-10-16T23:56:07.361Z,7.09
2018-10-16T23:58:36.418Z,7.11
